Time;durP1;ratioP1;P1;durP2;ratioP2;P2;SDS_P1;SDS_P2;PMS_P1;PMS_P2;Temp;Humidity;BMP_temperature;BMP_pressure;BME280_temperature;BME280_humidity;BME280_pressure;Samples;Min_cycle;Max_cycle;Signal;HPM_P1;HPM_P2
2021/07/29 00:01:16;;;;;;;6.80;5.80;;;;;;;20.82;78.73;99870.80;92907;1211;67472;-59
2021/07/29 00:03:24;;;;;;;8.50;6.30;;;;;;;20.82;78.71;99872.74;92917;1211;68739;-62
2021/07/29 00:05:32;;;;;;;7.70;5.60;;;;;;;20.84;78.90;99862.31;92907;1211;86206;-60
2021/07/29 00:07:40;;;;;;;10.00;6.40;;;;;;;20.83;78.98;99874.38;92951;1217;74515;-61
2021/07/29 00:09:51;;;;;;;6.60;5.70;;;;;;;20.78;78.86;99877.11;92922;1211;81240;-60
2021/07/29 00:11:58;;;;;;;7.10;5.90;;;;;;;20.79;78.83;99878.77;92896;1211;67841;-61
2021/07/29 00:14:06;;;;;;;8.10;5.80;;;;;;;20.79;78.79;99887.84;92938;1211;67936;-61
2021/07/29 00:16:13;;;;;;;7.80;6.50;;;;;;;20.79;78.94;99882.34;92913;1211;86547;-62
2021/07/29 00:20:46;;;;;;;8.60;7.20;;;;;;;20.80;79.01;99874.91;92890;1211;81819;-61
2021/07/29 00:22:58;;;;;;;9.40;6.40;;;;;;;20.81;78.71;99879.32;92938;1210;66865;-61
2021/07/29 00:25:13;;;;;;;7.20;6.40;;;;;;;20.79;78.80;99878.77;92932;1212;67842;-61
2021/07/29 00:27:20;;;;;;;7.50;6.60;;;;;;;20.78;79.00;99877.11;92932;1211;85011;-60
2021/07/29 00:29:28;;;;;;;9.70;7.10;;;;;;;20.77;78.82;99884.52;92917;1211;74506;-59
2021/07/29 00:31:37;;;;;;;8.00;7.30;;;;;;;20.78;78.83;99879.85;92929;1211;84654;-61
2021/07/29 00:33:45;;;;;;;8.10;7.40;;;;;;;20.75;79.15;99877.64;92986;1209;67843;-60
2021/07/29 00:35:52;;;;;;;9.50;7.70;;;;;;;20.76;79.25;99874.64;92932;1211;68466;-62
2021/07/29 00:38:02;;;;;;;8.90;7.70;;;;;;;20.78;78.98;99864.21;92912;1211;87050;-60
2021/07/29 00:40:15;;;;;;;8.70;7.80;;;;;;;20.78;79.34;99874.36;92943;1211;74752;-60
2021/07/29 00:42:26;;;;;;;9.70;7.70;;;;;;;20.73;79.13;99866.11;92946;1218;81740;-61
2021/07/29 00:44:37;;;;;;;7.90;7.10;;;;;;;20.71;79.41;99866.36;92899;1218;67565;-61
2021/07/29 00:46:45;;;;;;;10.00;7.60;;;;;;;20.72;79.18;99869.94;92949;1211;69125;-62
2021/07/29 00:48:54;;;;;;;9.10;7.90;;;;;;;20.71;79.45;99866.36;92929;1211;87076;-64
2021/07/29 00:51:02;;;;;;;7.80;7.00;;;;;;;20.71;79.53;99865.56;92932;1211;74062;-61
2021/07/29 00:53:13;;;;;;;10.10;8.60;;;;;;;20.73;79.50;99866.11;92937;1211;80161;-60
2021/07/29 00:55:25;;;;;;;8.40;7.50;;;;;;;20.74;79.27;99870.52;92901;1211;68043;-61
2021/07/29 00:57:33;;;;;;;9.50;8.20;;;;;;;20.67;79.57;99858.94;92951;1211;67710;-62
2021/07/29 00:59:42;;;;;;;9.50;7.10;;;;;;;20.68;79.58;99858.69;92949;1217;86779;-62
2021/07/29 01:01:50;;;;;;;8.60;7.50;;;;;;;20.74;79.34;99854.84;92962;1211;74581;-61
2021/07/29 01:03:58;;;;;;;9.80;7.50;;;;;;;20.71;79.53;99854.58;92944;1217;81791;-62
2021/07/29 01:06:05;;;;;;;10.50;8.60;;;;;;;20.70;79.63;99856.50;92900;1209;65723;-60
2021/07/29 01:08:13;;;;;;;10.50;8.10;;;;;;;20.67;79.52;99856.20;92946;1218;68578;-60
2021/07/29 01:10:21;;;;;;;9.10;8.20;;;;;;;20.67;79.34;99862.52;92925;1211;85999;-60
2021/07/29 01:12:29;;;;;;;13.90;8.30;;;;;;;20.65;79.34;99866.63;92935;1216;74509;-59
2021/07/29 01:14:38;;;;;;;10.70;9.00;;;;;;;20.62;79.71;99861.67;92916;1216;81172;-60
2021/07/29 01:16:46;;;;;;;11.60;8.90;;;;;;;20.59;79.53;99863.87;92946;1211;65877;-62
2021/07/29 01:18:57;;;;;;;9.80;8.80;;;;;;;20.60;79.53;99860.01;92927;1210;67767;-61
2021/07/29 01:21:05;;;;;;;10.20;8.60;;;;;;;20.59;79.58;99869.36;92931;1211;87110;-61
2021/07/29 01:23:13;;;;;;;10.20;9.10;;;;;;;20.59;79.61;99866.61;92926;1211;74434;-60
2021/07/29 01:25:20;;;;;;;12.00;9.00;;;;;;;20.59;79.64;99860.29;92913;1216;81322;-59
2021/07/29 01:27:31;;;;;;;12.70;8.60;;;;;;;20.61;79.88;99852.61;92932;1211;65854;-60
2021/07/29 01:29:39;;;;;;;10.80;8.60;;;;;;;20.64;79.83;99853.98;92923;1211;68179;-60
2021/07/29 01:31:47;;;;;;;10.00;9.00;;;;;;;20.58;79.65;99851.22;92937;1206;85843;-60
2021/07/29 01:33:56;;;;;;;12.10;9.10;;;;;;;20.57;79.83;99852.31;92917;1218;74576;-61
2021/07/29 01:36:04;;;;;;;13.90;9.60;;;;;;;20.58;79.96;99853.97;92916;1211;81393;-62
2021/07/29 01:38:11;;;;;;;11.00;8.30;;;;;;;20.58;79.75;99848.48;92946;1211;67278;-63
2021/07/29 01:40:22;;;;;;;11.50;9.20;;;;;;;20.59;80.06;99852.06;92924;1211;68126;-62
2021/07/29 01:42:30;;;;;;;9.70;8.40;;;;;;;20.58;80.14;99842.98;92910;1211;87168;-62
2021/07/29 01:44:40;;;;;;;10.00;9.00;;;;;;;20.54;79.87;99844.64;92947;1218;73987;-61
2021/07/29 01:46:48;;;;;;;12.20;9.00;;;;;;;20.50;79.79;99842.67;92931;1211;80275;-62
2021/07/29 01:48:55;;;;;;;9.20;8.30;;;;;;;20.50;79.75;99838.02;92934;1211;68566;-61
2021/07/29 01:51:03;;;;;;;9.00;8.10;;;;;;;20.53;80.01;99845.72;92923;1204;68058;-60
2021/07/29 01:53:10;;;;;;;11.40;8.70;;;;;;;20.50;79.94;99850.91;92948;1211;86859;-60
2021/07/29 01:55:18;;;;;;;9.20;8.20;;;;;;;20.50;79.93;99843.51;92943;1218;73958;-63
2021/07/29 01:57:26;;;;;;;12.10;8.70;;;;;;;20.47;79.87;99849.52;92909;1211;82601;-63
2021/07/29 01:59:37;;;;;;;9.70;7.70;;;;;;;20.43;80.00;99853.91;92945;1211;67233;-63
2021/07/29 02:01:44;;;;;;;9.80;7.80;;;;;;;20.42;80.25;99852.25;92914;1211;69194;-60
2021/07/29 02:03:53;;;;;;;11.40;9.10;;;;;;;20.43;80.26;99853.08;92927;1211;86423;-61
2021/07/29 02:06:04;;;;;;;14.60;9.00;;;;;;;20.42;79.98;99840.44;92935;1210;75871;-62
2021/07/29 02:08:12;;;;;;;10.90;8.60;;;;;;;20.42;80.04;99855.00;92932;1211;81154;-63
2021/07/29 02:10:20;;;;;;;10.20;8.90;;;;;;;20.39;80.24;99861.02;92913;1211;68647;-61
2021/07/29 02:12:30;;;;;;;12.50;8.60;;;;;;;20.38;79.97;99856.61;92942;1211;70035;-61
2021/07/29 02:14:41;;;;;;;9.60;8.70;;;;;;;20.38;80.12;99855.80;92935;1211;86876;-62
2021/07/29 02:16:49;;;;;;;9.90;8.70;;;;;;;20.38;80.07;99866.78;92935;1211;74237;-59
2021/07/29 02:19:00;;;;;;;13.90;9.00;;;;;;;20.39;80.28;99861.02;92952;1211;80347;-60
2021/07/29 02:21:11;;;;;;;12.50;8.70;;;;;;;20.38;80.04;99867.58;92912;1211;68110;-63
2021/07/29 02:23:18;;;;;;;9.50;8.50;;;;;;;20.32;79.97;99868.67;92916;1212;68241;-63
2021/07/29 02:25:29;;;;;;;15.00;9.10;;;;;;;20.27;80.07;99860.38;92935;1211;86830;-64
2021/07/29 02:27:37;;;;;;;11.40;8.70;;;;;;;20.22;80.02;99865.81;92953;1211;75558;-67
2021/07/29 02:29:45;;;;;;;11.30;8.90;;;;;;;20.18;80.35;99866.62;92909;1211;81255;-67
2021/07/29 02:31:53;;;;;;;12.40;8.80;;;;;;;20.15;80.27;99878.12;92900;1211;67673;-62
2021/07/29 02:34:00;;;;;;;10.70;8.30;;;;;;;20.11;80.36;99887.98;92959;1211;68443;-63
2021/07/29 02:36:08;;;;;;;16.40;8.80;;;;;;;20.14;80.23;99893.73;92932;1212;87168;-66
2021/07/29 02:38:16;;;;;;;12.50;9.20;;;;;;;20.15;80.29;99891.83;92953;1211;75426;-66
2021/07/29 02:40:23;;;;;;;12.60;9.50;;;;;;;20.10;80.31;99889.06;92945;1210;81814;-62
2021/07/29 02:42:34;;;;;;;13.10;9.70;;;;;;;20.08;80.28;99889.30;92957;1211;69023;-62
2021/07/29 02:44:42;;;;;;;11.70;9.00;;;;;;;20.07;80.10;99900.55;92961;1211;68370;-61
2021/07/29 02:46:49;;;;;;;12.00;9.20;;;;;;;20.05;80.49;99897.25;92947;1211;85243;-60
2021/07/29 02:48:57;;;;;;;11.70;9.00;;;;;;;19.99;80.49;99904.62;92948;1210;75337;-61
2021/07/29 02:51:07;;;;;;;11.60;9.60;;;;;;;19.93;80.57;99903.75;92912;1211;82632;-61
2021/07/29 02:53:15;;;;;;;13.00;9.50;;;;;;;19.89;80.57;99910.83;92939;1211;68055;-61
2021/07/29 02:55:22;;;;;;;10.60;9.20;;;;;;;19.86;80.53;99914.09;92940;1211;69227;-61
2021/07/29 02:57:30;;;;;;;13.70;9.50;;;;;;;19.84;80.36;99909.96;92937;1211;86664;-61
2021/07/29 02:59:40;;;;;;;12.10;9.90;;;;;;;19.83;80.60;99911.07;92916;1211;76101;-60
2021/07/29 03:01:48;;;;;;;11.90;10.00;;;;;;;19.78;80.46;99911.00;92947;1211;81900;-60
2021/07/29 03:03:56;;;;;;;12.40;10.10;;;;;;;19.73;80.55;99908.22;92935;1211;67157;-59
2021/07/29 03:06:03;;;;;;;13.40;10.00;;;;;;;19.68;80.80;99916.41;92930;1211;69116;-63
2021/07/29 03:08:14;;;;;;;12.90;9.70;;;;;;;19.69;80.72;99916.16;92940;1211;86380;-62
2021/07/29 03:10:22;;;;;;;12.60;10.50;;;;;;;19.69;80.64;99918.07;92936;1211;75037;-59
2021/07/29 03:12:31;;;;;;;12.10;9.30;;;;;;;19.66;80.53;99926.80;92928;1211;80260;-59
2021/07/29 03:14:40;;;;;;;14.90;9.70;;;;;;;19.63;80.57;99916.36;92928;1211;68341;-61
2021/07/29 03:16:47;;;;;;;11.50;9.50;;;;;;;19.65;80.51;99922.40;92969;1218;69333;-60
2021/07/29 03:18:55;;;;;;;14.70;10.00;;;;;;;19.61;80.92;99934.98;92900;1211;87604;-60
2021/07/29 03:21:02;;;;;;;12.40;9.50;;;;;;;19.62;80.75;99922.92;92906;1218;73843;-62
2021/07/29 03:23:11;;;;;;;12.60;10.10;;;;;;;19.60;80.64;99927.84;92945;1211;81712;-61
2021/07/29 03:25:21;;;;;;;12.40;9.20;;;;;;;19.63;80.76;99928.16;92917;1211;66905;-63
2021/07/29 03:27:28;;;;;;;14.10;9.60;;;;;;;19.62;80.68;99940.19;92985;1204;68613;-61
2021/07/29 03:29:36;;;;;;;10.90;9.80;;;;;;;19.61;80.73;99938.56;92945;1211;86855;-62
2021/07/29 03:31:47;;;;;;;10.90;9.70;;;;;;;19.63;80.75;99941.03;92958;1211;75910;-63
2021/07/29 03:33:54;;;;;;;13.70;10.70;;;;;;;19.64;80.65;99938.02;92912;1211;80331;-62
2021/07/29 03:36:02;;;;;;;13.00;9.70;;;;;;;19.60;80.54;99942.38;92899;1211;67741;-60
2021/07/29 03:38:10;;;;;;;12.80;9.00;;;;;;;19.59;80.51;99939.88;92914;1210;68935;-60
2021/07/29 03:40:18;;;;;;;15.30;9.70;;;;;;;19.59;80.74;99945.36;92895;1211;87469;-62
2021/07/29 03:42:29;;;;;;;13.30;10.20;;;;;;;19.59;80.74;99940.70;92966;1210;74341;-61
2021/07/29 03:44:36;;;;;;;11.30;9.40;;;;;;;19.65;80.59;99944.33;92963;1211;80808;-62
2021/07/29 03:46:44;;;;;;;13.00;9.70;;;;;;;19.67;80.48;99942.98;92938;1211;66869;-60
2021/07/29 03:48:51;;;;;;;14.70;8.90;;;;;;;19.73;80.65;99943.85;92931;1211;68821;-61
2021/07/29 03:50:59;;;;;;;11.10;8.60;;;;;;;20.00;80.72;99941.89;92927;1211;87159;-60
2021/07/29 03:53:07;;;;;;;9.40;8.40;;;;;;;20.88;80.80;99943.87;92931;1211;74254;-59
2021/07/29 03:55:14;;;;;;;13.20;9.40;;;;;;;21.82;79.92;99948.28;92931;1211;80601;-63
2021/07/29 03:57:25;;;;;;;10.60;9.10;;;;;;;22.55;79.05;99938.65;92936;1216;65666;-63
2021/07/29 03:59:33;;;;;;;10.40;8.80;;;;;;;23.15;78.04;99954.17;92951;1211;68656;-63
2021/07/29 04:01:41;;;;;;;11.40;8.90;;;;;;;23.67;76.84;99948.95;92932;1211;87178;-62
2021/07/29 04:03:49;;;;;;;10.50;8.80;;;;;;;23.91;75.92;99957.31;92949;1211;74420;-62
2021/07/29 04:05:57;;;;;;;11.10;9.00;;;;;;;24.01;75.28;99955.30;92919;1211;81925;-63
2021/07/29 04:08:06;;;;;;;10.70;8.80;;;;;;;24.54;74.79;99947.95;92948;1210;65604;-62
2021/07/29 04:10:16;;;;;;;11.60;8.80;;;;;;;25.15;73.51;99959.16;92955;1211;68320;-61
2021/07/29 04:12:23;;;;;;;12.60;8.10;;;;;;;25.70;72.04;99960.36;92965;1218;86696;-60
2021/07/29 04:14:31;;;;;;;10.90;8.60;;;;;;;26.16;70.72;99957.72;92939;1211;75394;-60
2021/07/29 04:16:38;;;;;;;11.10;7.90;;;;;;;26.57;69.81;99955.05;92925;1217;80788;-64
2021/07/29 04:18:46;;;;;;;10.40;7.70;;;;;;;26.72;68.16;99956.72;92973;1212;65174;-64
2021/07/29 04:20:54;;;;;;;11.10;7.40;;;;;;;26.52;67.85;99954.31;92940;1211;69261;-63
2021/07/29 04:23:05;;;;;;;12.00;7.50;;;;;;;26.42;66.61;99960.05;92938;1211;86359;-64
2021/07/29 04:25:13;;;;;;;9.00;7.50;;;;;;;25.66;66.63;99969.54;92939;1210;74392;-63
2021/07/29 04:27:20;;;;;;;10.50;7.70;;;;;;;24.93;67.19;99967.17;92947;1211;80454;-63
2021/07/29 04:29:31;;;;;;;9.30;7.30;;;;;;;24.28;67.72;99962.30;92937;1217;66670;-62
2021/07/29 04:31:39;;;;;;;8.80;7.20;;;;;;;23.73;68.52;99967.11;92970;1211;69101;-65
2021/07/29 04:33:46;;;;;;;10.40;8.30;;;;;;;23.37;68.88;99965.64;92940;1211;86713;-63
2021/07/29 04:35:57;;;;;;;11.90;7.50;;;;;;;23.09;69.42;99964.39;92914;1211;74755;-61
2021/07/29 04:38:05;;;;;;;8.90;7.90;;;;;;;22.91;70.10;99963.06;92912;1211;81545;-63
2021/07/29 04:40:15;;;;;;;10.40;7.80;;;;;;;22.83;70.25;99960.89;92941;1210;67759;-60
2021/07/29 04:42:22;;;;;;;11.30;8.10;;;;;;;22.93;70.43;99971.06;92973;1209;68439;-61
2021/07/29 04:44:34;;;;;;;9.10;8.20;;;;;;;22.94;70.42;99969.14;92949;1211;85861;-62
2021/07/29 04:46:45;;;;;;;10.10;7.30;;;;;;;22.78;71.26;99969.17;92924;1211;75548;-63
2021/07/29 04:48:52;;;;;;;10.90;6.80;;;;;;;23.63;71.27;99961.64;92910;1211;81603;-64
2021/07/29 04:51:04;;;;;;;8.20;6.80;;;;;;;24.92;70.09;99951.69;92929;1206;66779;-60
2021/07/29 04:53:11;;;;;;;14.30;7.00;;;;;;;26.31;68.34;99968.55;92988;1207;68358;-61
2021/07/29 04:55:19;;;;;;;9.00;6.80;;;;;;;27.25;66.68;99957.06;92913;1211;87422;-62
2021/07/29 04:57:27;;;;;;;11.20;6.70;;;;;;;28.16;65.12;99963.30;92930;1211;75552;-62
2021/07/29 04:59:39;;;;;;;10.60;6.30;;;;;;;29.04;63.61;99954.81;92932;1211;81097;-61
2021/07/29 05:01:47;;;;;;;8.40;6.10;;;;;;;29.67;61.75;99948.75;92923;1211;65309;-60
2021/07/29 05:03:55;;;;;;;8.10;6.80;;;;;;;30.03;60.58;99958.78;92934;1211;68263;-60
2021/07/29 05:06:04;;;;;;;7.10;6.40;;;;;;;30.36;58.76;99955.16;92913;1211;86915;-63
2021/07/29 05:08:12;;;;;;;9.00;5.80;;;;;;;30.67;57.65;99963.29;92936;1211;74159;-63
2021/07/29 05:10:20;;;;;;;10.40;6.60;;;;;;;30.81;56.56;99947.16;92939;1211;81119;-62
2021/07/29 05:12:29;;;;;;;7.60;6.40;;;;;;;31.18;55.24;99962.27;92934;1211;65901;-62
2021/07/29 05:14:37;;;;;;;22.00;19.80;;;;;;;31.54;54.46;99953.38;92957;1211;69242;-60
2021/07/29 05:16:44;;;;;;;9.30;7.50;;;;;;;31.91;53.20;99954.41;92948;1211;85950;-63
2021/07/29 05:18:52;;;;;;;8.00;6.50;;;;;;;32.10;52.95;99961.17;92929;1211;74788;-65
2021/07/29 05:21:05;;;;;;;8.00;6.10;;;;;;;32.38;51.89;99954.98;92904;1217;80726;-63
2021/07/29 05:23:16;;;;;;;7.90;5.70;;;;;;;32.68;50.39;99962.08;92947;1211;65393;-63
2021/07/29 05:25:23;;;;;;;8.60;5.50;;;;;;;32.69;50.60;99958.09;92901;1211;68294;-60
2021/07/29 05:27:31;;;;;;;7.10;5.40;;;;;;;32.87;49.53;99965.14;92919;1211;86274;-61
2021/07/29 05:29:39;;;;;;;7.60;5.80;;;;;;;33.27;48.81;99954.09;92947;1211;75480;-62
2021/07/29 05:31:50;;;;;;;6.50;5.40;;;;;;;33.43;48.12;99959.81;92949;1205;80754;-63
2021/07/29 05:33:57;;;;;;;10.40;5.20;;;;;;;33.79;47.10;99960.56;92903;1211;66580;-63
2021/07/29 05:36:06;;;;;;;7.30;5.50;;;;;;;33.94;47.00;99959.02;92931;1211;68790;-61
2021/07/29 05:38:14;;;;;;;8.00;5.40;;;;;;;34.09;46.53;99958.27;92918;1211;86278;-61
2021/07/29 05:40:22;;;;;;;7.80;5.30;;;;;;;34.46;44.90;99960.91;92950;1211;73954;-61
2021/07/29 05:42:30;;;;;;;6.60;5.40;;;;;;;34.31;44.75;99966.13;92960;1211;82854;-61
2021/07/29 05:44:43;;;;;;;7.00;5.20;;;;;;;34.28;44.42;99963.23;92920;1211;67042;-61
2021/07/29 05:46:51;;;;;;;8.60;5.60;;;;;;;34.53;44.14;99963.92;92931;1211;69439;-61
2021/07/29 05:48:59;;;;;;;6.90;5.30;;;;;;;34.59;43.62;99960.52;92935;1211;86444;-60
2021/07/29 05:51:07;;;;;;;8.80;5.50;;;;;;;34.84;42.75;99961.16;92935;1211;75213;-64
2021/07/29 05:53:14;;;;;;;7.80;5.10;;;;;;;35.05;42.06;99970.15;92952;1217;81980;-65
2021/07/29 05:55:22;;;;;;;7.70;6.10;;;;;;;35.18;42.14;99966.09;92944;1209;65247;-62
2021/07/29 05:57:30;;;;;;;7.10;4.90;;;;;;;35.18;42.22;99974.52;92935;1211;69284;-67
2021/07/29 05:59:41;;;;;;;6.10;5.20;;;;;;;35.53;41.18;99966.93;92933;1211;86578;-60
2021/07/29 06:01:48;;;;;;;7.30;4.90;;;;;;;35.42;40.86;99967.85;92934;1217;75489;-64
2021/07/29 06:03:56;;;;;;;6.40;5.40;;;;;;;35.56;40.39;99970.21;92909;1211;81276;-62
2021/07/29 06:06:04;;;;;;;7.00;5.20;;;;;;;35.61;40.07;99975.54;92906;1211;66230;-60
2021/07/29 06:08:12;;;;;;;8.40;5.50;;;;;;;35.84;40.09;99976.48;92934;1212;69151;-64
2021/07/29 06:10:20;;;;;;;6.50;5.10;;;;;;;35.93;39.09;99982.71;92920;1211;86798;-62
2021/07/29 06:12:28;;;;;;;6.30;4.70;;;;;;;36.02;39.52;99972.89;92920;1211;75177;-59
2021/07/29 06:14:35;;;;;;;5.10;4.70;;;;;;;36.32;38.46;99983.53;92894;1211;82014;-60
2021/07/29 06:16:43;;;;;;;5.70;4.60;;;;;;;36.39;38.17;99981.70;92956;1204;65686;-64
2021/07/29 06:19:03;;;;;;;5.40;4.50;;;;;;;36.56;37.54;99986.86;92962;1211;70551;-64
2021/07/29 06:21:11;;;;;;;5.60;5.00;;;;;;;36.49;37.91;99983.08;92893;1211;86788;-65
2021/07/29 06:23:18;;;;;;;6.40;4.80;;;;;;;36.67;37.56;99993.51;92947;1211;74052;-66
2021/07/29 06:25:26;;;;;;;8.00;5.00;;;;;;;36.54;37.49;99994.88;92911;1211;81742;-60
2021/07/29 06:27:35;;;;;;;6.70;5.20;;;;;;;36.13;37.91;99995.61;92921;1218;67406;-61
2021/07/29 06:29:43;;;;;;;6.10;4.60;;;;;;;35.36;37.84;99988.98;92935;1211;69451;-62
2021/07/29 06:31:51;;;;;;;7.30;5.20;;;;;;;34.28;38.79;99994.09;92852;1211;86686;-60
2021/07/29 06:33:58;;;;;;;5.60;5.00;;;;;;;33.25;39.52;99988.05;92948;1211;74782;-60
2021/07/29 06:36:07;;;;;;;7.40;4.80;;;;;;;32.50;41.24;100002.55;92924;1216;82059;-65
2021/07/29 06:38:15;;;;;;;6.10;5.50;;;;;;;32.07;42.37;100000.99;92953;1209;65777;-63
2021/07/29 06:40:22;;;;;;;8.70;5.50;;;;;;;31.81;43.26;99997.53;92939;1212;70318;-64
2021/07/29 06:42:30;;;;;;;7.10;5.30;;;;;;;31.06;44.00;100006.01;92931;1211;86946;-66
2021/07/29 06:44:42;;;;;;;7.10;5.40;;;;;;;30.29;44.52;100001.39;92936;1211;74187;-61
2021/07/29 06:46:49;;;;;;;4.90;4.20;;;;;;;30.19;45.73;100001.73;92947;1211;80938;-63
2021/07/29 06:48:57;;;;;;;8.80;5.00;;;;;;;30.11;46.17;100008.11;92918;1211;65170;-64
2021/07/29 06:51:09;;;;;;;5.80;4.90;;;;;;;30.18;47.25;100005.66;92983;1211;68979;-61
2021/07/29 06:53:17;;;;;;;6.80;5.60;;;;;;;30.30;47.04;100014.98;92979;1206;85461;-60
2021/07/29 06:55:24;;;;;;;8.60;5.80;;;;;;;30.34;46.27;100007.62;92950;1211;74388;-61
2021/07/29 06:57:32;;;;;;;7.60;5.70;;;;;;;30.14;46.48;100011.06;93002;1211;81770;-63
2021/07/29 06:59:40;;;;;;;5.80;5.10;;;;;;;29.95;46.71;100012.53;92976;1217;67079;-61
2021/07/29 07:01:48;;;;;;;5.70;4.70;;;;;;;30.25;47.42;100005.97;93002;1211;69530;-62
2021/07/29 07:03:55;;;;;;;6.80;5.20;;;;;;;30.83;45.96;100005.40;93005;1211;85615;-62
2021/07/29 07:06:08;;;;;;;5.50;4.80;;;;;;;31.13;45.98;100001.53;92927;1211;76063;-57
2021/07/29 07:08:16;;;;;;;5.60;5.10;;;;;;;32.21;45.68;100005.47;92963;1202;83189;-69
2021/07/29 07:10:24;;;;;;;7.50;5.00;;;;;;;33.12;44.12;100003.22;92958;1217;66092;-65
2021/07/29 07:12:31;;;;;;;5.10;4.60;;;;;;;34.13;43.06;100003.25;92937;1211;69290;-63
2021/07/29 07:14:40;;;;;;;5.50;5.00;;;;;;;35.01;41.95;100004.91;93013;1213;86479;-60
2021/07/29 07:16:50;;;;;;;4.70;4.20;;;;;;;35.53;40.69;100006.27;92957;1217;75322;-58
2021/07/29 07:18:58;;;;;;;7.90;4.60;;;;;;;35.85;39.92;100000.61;92957;1212;82750;-59
2021/07/29 07:21:11;;;;;;;5.20;4.70;;;;;;;36.48;38.67;100004.77;92933;1211;65553;-64
2021/07/29 07:23:19;;;;;;;4.60;4.20;;;;;;;36.95;37.87;100010.11;93012;1211;68041;-59
2021/07/29 07:25:27;;;;;;;4.60;4.00;;;;;;;37.30;36.93;99998.69;92971;1211;86474;-68
2021/07/29 07:27:34;;;;;;;5.60;4.50;;;;;;;37.57;36.42;100007.99;92970;1206;74282;-68
2021/07/29 07:29:42;;;;;;;5.00;4.60;;;;;;;37.85;36.38;100007.59;92924;1211;81214;-59
2021/07/29 07:31:50;;;;;;;6.10;4.70;;;;;;;37.97;34.98;100004.55;92934;1212;66273;-58
2021/07/29 07:33:58;;;;;;;4.50;3.90;;;;;;;38.12;35.71;100000.74;92953;1211;69773;-58
2021/07/29 07:36:07;;;;;;;7.30;4.90;;;;;;;38.20;35.14;100005.28;92975;1211;86519;-56
2021/07/29 07:38:17;;;;;;;4.40;3.90;;;;;;;38.22;34.47;100002.88;93034;1212;75538;-60
2021/07/29 07:40:26;;;;;;;4.90;4.20;;;;;;;38.26;34.36;99989.63;92957;1211;81161;-60
2021/07/29 07:42:33;;;;;;;15.20;13.80;;;;;;;38.03;34.64;99991.75;92912;1211;67108;-57
2021/07/29 07:44:41;;;;;;;6.70;6.10;;;;;;;38.06;34.25;99990.98;92970;1211;68102;-58
2021/07/29 07:46:48;;;;;;;5.60;4.70;;;;;;;38.18;34.49;99987.92;92948;1211;85811;-60
2021/07/29 07:48:59;;;;;;;5.10;4.60;;;;;;;38.19;33.96;99983.89;92930;1211;75666;-58
2021/07/29 07:51:07;;;;;;;4.50;4.10;;;;;;;38.22;33.90;99983.12;92919;1211;80531;-58
2021/07/29 07:53:18;;;;;;;4.50;4.00;;;;;;;38.43;33.45;99983.42;92934;1211;65253;-57
2021/07/29 07:55:25;;;;;;;6.20;4.00;;;;;;;38.73;33.47;99988.98;92942;1216;67842;-69
2021/07/29 07:57:33;;;;;;;5.00;4.10;;;;;;;38.72;33.62;99996.64;92983;1204;85329;-64
2021/07/29 07:59:41;;;;;;;4.10;3.70;;;;;;;38.66;33.25;99986.06;92924;1211;74089;-62
2021/07/29 08:01:49;;;;;;;4.90;4.20;;;;;;;38.56;32.34;99992.42;92907;1211;82459;-63
2021/07/29 08:03:57;;;;;;;5.60;4.00;;;;;;;38.76;32.83;99991.06;92929;1204;65204;-62
2021/07/29 08:06:05;;;;;;;5.00;4.00;;;;;;;38.37;33.13;99990.61;92954;1202;68379;-61
2021/07/29 08:08:13;;;;;;;5.50;4.20;;;;;;;38.74;32.92;99994.23;92908;1211;86070;-62
2021/07/29 08:10:21;;;;;;;4.40;3.80;;;;;;;38.72;32.37;99988.16;92913;1211;76490;-62
2021/07/29 08:12:29;;;;;;;3.80;3.40;;;;;;;38.37;31.99;99984.96;92914;1211;81952;-62
2021/07/29 08:14:38;;;;;;;4.80;4.40;;;;;;;38.33;32.88;99978.45;92920;1211;66240;-62
2021/07/29 08:16:45;;;;;;;4.00;3.60;;;;;;;38.40;33.40;99977.73;92961;1210;68604;-62
2021/07/29 08:18:54;;;;;;;3.50;3.20;;;;;;;38.68;33.49;99984.48;92926;1211;86167;-61
2021/07/29 08:21:01;;;;;;;4.30;3.90;;;;;;;39.02;32.60;99984.42;92903;1211;73819;-64
2021/07/29 08:23:09;;;;;;;4.10;3.70;;;;;;;39.09;31.73;99990.95;92924;1211;81453;-63
2021/07/29 08:25:21;;;;;;;4.20;3.80;;;;;;;38.89;32.65;99984.73;92909;1211;65722;-61
2021/07/29 08:27:27;;;;;;;;;;;;;;;38.85;32.04;99988.71;92942;1211;68701;-62
2021/07/29 08:29:35;;;;;;;4.40;3.30;;;;;;;38.81;32.46;99997.17;92918;1211;86989;-61
2021/07/29 08:31:43;;;;;;;4.30;3.60;;;;;;;39.02;31.46;99992.91;92918;1211;75396;-62
2021/07/29 08:33:51;;;;;;;4.10;3.60;;;;;;;38.86;32.23;99988.34;92916;1211;81655;-63
2021/07/29 08:36:01;;;;;;;4.30;3.50;;;;;;;38.47;31.37;99984.26;92900;1211;67228;-62
2021/07/29 08:38:09;;;;;;;4.00;3.70;;;;;;;38.13;32.24;99974.16;92955;1211;67968;-62
2021/07/29 08:40:19;;;;;;;4.10;3.70;;;;;;;38.28;32.01;99985.23;92972;1211;86941;-62
2021/07/29 08:42:27;;;;;;;4.60;3.70;;;;;;;38.17;32.34;99980.64;92926;1212;74775;-62
2021/07/29 08:44:36;;;;;;;5.90;3.60;;;;;;;38.20;31.90;99986.34;92890;1211;81162;-61
2021/07/29 08:46:50;;;;;;;4.10;3.70;;;;;;;38.14;31.81;99978.59;92933;1211;67188;-64
2021/07/29 08:48:57;;;;;;;6.20;3.90;;;;;;;38.43;31.82;99983.42;92921;1211;69485;-64
2021/07/29 08:51:05;;;;;;;4.10;3.70;;;;;;;38.40;32.04;99989.84;92915;1211;87203;-63
2021/07/29 08:53:13;;;;;;;4.20;3.60;;;;;;;37.68;31.73;99992.05;92937;1211;75603;-62
2021/07/29 08:55:21;;;;;;;4.10;3.80;;;;;;;36.94;32.91;99993.61;92914;1211;81115;-62
2021/07/29 08:57:32;;;;;;;5.90;4.00;;;;;;;37.28;32.56;99983.35;92880;1211;66057;-62
2021/07/29 08:59:41;;;;;;;5.90;3.90;;;;;;;37.45;33.30;99983.64;92925;1211;69633;-62
2021/07/29 09:01:52;;;;;;;4.60;3.80;;;;;;;37.48;33.18;99985.70;92925;1211;86269;-63
2021/07/29 09:04:14;;;;;;;5.40;3.80;;;;;;;37.49;31.89;99983.70;92966;1211;74909;-63
2021/07/29 09:06:22;;;;;;;4.90;3.60;;;;;;;37.25;33.67;99984.89;92916;1218;81041;-62
2021/07/29 09:08:45;;;;;;;4.00;3.50;;;;;;;37.24;32.19;99983.28;92927;1211;66503;-62
2021/07/29 09:10:53;;;;;;;4.00;3.70;;;;;;;37.39;32.66;99981.52;92928;1211;68159;-62
2021/07/29 09:13:18;;;;;;;5.40;3.90;;;;;;;37.32;33.21;99987.02;92931;1211;85540;-62
2021/07/29 09:15:26;;;;;;;4.10;3.30;;;;;;;37.29;32.91;99984.95;92913;1211;74976;-63
2021/07/29 09:17:45;;;;;;;3.90;3.50;;;;;;;37.23;31.95;99988.10;92916;1211;81347;-62
2021/07/29 09:19:56;;;;;;;3.90;3.40;;;;;;;36.98;33.54;99986.86;92879;1211;65485;-63
2021/07/29 09:22:14;;;;;;;5.10;4.00;;;;;;;36.92;33.87;99987.55;92879;1211;68116;-64
2021/07/29 09:24:25;;;;;;;4.70;3.60;;;;;;;37.08;33.84;99986.25;92923;1211;87766;-63
2021/07/29 09:26:54;;;;;;;5.80;3.90;;;;;;;36.77;33.29;99994.91;92947;1211;75684;-61
2021/07/29 09:29:01;;;;;;;4.10;3.70;;;;;;;36.44;34.06;99991.83;92946;1211;81133;-61
2021/07/29 09:31:24;;;;;;;4.10;3.60;;;;;;;36.10;33.69;99983.10;92917;1216;66232;-61
2021/07/29 09:33:32;;;;;;;4.50;3.40;;;;;;;35.83;34.29;99980.46;92914;1211;68863;-61
2021/07/29 09:35:45;;;;;;;4.30;3.20;;;;;;;35.59;34.16;99986.34;92900;1211;88052;-62
2021/07/29 09:37:55;;;;;;;5.60;3.80;;;;;;;34.80;34.68;99983.55;92933;1211;75047;-63
2021/07/29 09:40:05;;;;;;;4.50;3.10;;;;;;;34.49;35.67;99979.83;92935;1216;82758;-63
2021/07/29 09:42:23;;;;;;;4.70;3.50;;;;;;;34.45;35.72;99979.73;92915;1212;65754;-63
2021/07/29 09:44:46;;;;;;;3.70;3.30;;;;;;;34.13;36.12;99987.25;92914;1211;69677;-63
2021/07/29 09:47:01;;;;;;;4.40;3.20;;;;;;;34.02;37.04;99988.06;92882;1211;86306;-62
2021/07/29 09:49:09;;;;;;;6.30;3.30;;;;;;;33.94;36.39;99989.03;92893;1211;75048;-61
2021/07/29 09:51:19;;;;;;;4.30;3.70;;;;;;;33.64;37.54;99985.72;92896;1211;81891;-61
2021/07/29 09:53:31;;;;;;;8.80;4.10;;;;;;;33.45;36.97;99977.89;92906;1211;67242;-62
2021/07/29 09:55:39;;;;;;;5.40;3.60;;;;;;;33.41;37.34;99984.53;92902;1211;68910;-61
2021/07/29 09:57:46;;;;;;;4.20;3.80;;;;;;;33.22;37.94;99977.55;92910;1211;87099;-61
2021/07/29 09:59:57;;;;;;;4.30;3.80;;;;;;;33.08;37.77;99985.48;92952;1210;75484;-60
2021/07/29 10:02:07;;;;;;;6.60;3.70;;;;;;;32.96;39.11;99985.45;92924;1204;82554;-61
2021/07/29 10:04:17;;;;;;;4.20;3.40;;;;;;;32.81;38.57;99974.92;92898;1211;66326;-61
2021/07/29 10:06:27;;;;;;;4.10;3.70;;;;;;;32.81;39.17;99980.52;92910;1217;70180;-63